createdAt,value
2023-01-03T00:02:02.872Z,95640.69
2023-01-03T00:04:29.877Z,95643.56
2023-01-03T00:06:56.596Z,95667.38
2023-01-03T00:09:25.246Z,95656.34
2023-01-03T00:12:12.242Z,95651.31
2023-01-03T00:14:42.411Z,95647.41
2023-01-03T00:19:40.580Z,95650.97
2023-01-03T00:22:08.061Z,95660.34
2023-01-03T00:24:35.959Z,95657.63
2023-01-03T00:27:02.711Z,95652.09
2023-01-03T00:29:30.010Z,95661.16
2023-01-03T00:31:57.287Z,95661.72
2023-01-03T00:34:24.338Z,95654.97
2023-01-03T00:36:51.615Z,95658.56
2023-01-03T00:39:18.492Z,95670.41
2023-01-03T00:41:45.234Z,95667.16
2023-01-03T00:44:12.613Z,95675.91
2023-01-03T00:46:39.477Z,95667.28
2023-01-03T00:49:07.211Z,95666.16
2023-01-03T00:51:36.463Z,95657.22
2023-01-03T00:54:05.571Z,95664.59
2023-01-03T00:56:37.885Z,95680.81
2023-01-03T00:59:06.920Z,95655.22
2023-01-03T01:01:45.773Z,95658.66
2023-01-03T01:04:15.793Z,95670.44
2023-01-03T01:06:50.521Z,95659.19
2023-01-03T01:09:23.518Z,95683.69
2023-01-03T01:11:51.922Z,95676.53
2023-01-03T01:14:23.686Z,95666.69
2023-01-03T01:16:59.095Z,95686.75
2023-01-03T01:19:33.546Z,95700.50
2023-01-03T01:22:00.923Z,95682.41
2023-01-03T01:24:27.665Z,95680.97
2023-01-03T01:26:54.430Z,95685.47
2023-01-03T01:29:22.647Z,95686.06
2023-01-03T01:31:50.841Z,95684.09
2023-01-03T01:34:18.199Z,95702.31
2023-01-03T01:36:46.055Z,95696.22
2023-01-03T01:39:17.654Z,95686.78
2023-01-03T01:42:05.334Z,95676.28
2023-01-03T01:44:48.010Z,95696.19
2023-01-03T01:47:23.625Z,95722.50
2023-01-03T01:49:56.584Z,95692.94
2023-01-03T01:52:25.136Z,95673.16
2023-01-03T01:54:54.580Z,95668.59
2023-01-03T01:57:24.520Z,95676.03
2023-01-03T01:59:52.275Z,95699.13
2023-01-03T02:02:22.418Z,95667.41
2023-01-03T02:04:52.849Z,95666.69
2023-01-03T02:07:22.992Z,95679.94
2023-01-03T02:09:53.457Z,95694.72
2023-01-03T02:13:07.496Z,95680.44
2023-01-03T02:15:52.847Z,95671.91
2023-01-03T02:18:53.496Z,95705.97
2023-01-03T02:21:32.449Z,95687.19
2023-01-03T02:24:17.192Z,95693.88
2023-01-03T02:26:55.608Z,95700.00
2023-01-03T02:29:40.815Z,95697.81
2023-01-03T02:32:18.423Z,95700.41
2023-01-03T02:35:03.792Z,95705.41
2023-01-03T02:37:53.483Z,95701.78
2023-01-03T02:40:37.524Z,95717.50
2023-01-03T02:43:37.560Z,95713.38
2023-01-03T02:46:09.711Z,95687.13
2023-01-03T02:48:39.509Z,95694.03
2023-01-03T02:51:14.373Z,95693.22
2023-01-03T02:53:46.564Z,95709.72
2023-01-03T02:56:22.650Z,95700.72
2023-01-03T02:58:56.913Z,95701.38
2023-01-03T03:01:25.184Z,95700.72
2023-01-03T03:03:53.034Z,95696.78
2023-01-03T03:06:47.721Z,95686.19
2023-01-03T03:09:14.432Z,95673.97
2023-01-03T03:12:02.752Z,95683.16
2023-01-03T03:14:43.926Z,95687.31
2023-01-03T03:17:16.218Z,95700.50
2023-01-03T03:20:06.288Z,95719.66
2023-01-03T03:23:01.830Z,95681.84
2023-01-03T03:25:33.709Z,95720.25
2023-01-03T03:28:26.475Z,95696.22
2023-01-03T03:30:56.724Z,95719.84
2023-01-03T03:33:26.535Z,95704.75
2023-01-03T03:35:59.197Z,95694.06
2023-01-03T03:38:38.199Z,95707.31
2023-01-03T03:41:54.639Z,95704.84
2023-01-03T03:44:53.780Z,95704.56
2023-01-03T03:47:36.596Z,95703.69
2023-01-03T03:50:14.495Z,95694.03
2023-01-03T03:52:46.632Z,95704.19
2023-01-03T03:55:17.828Z,95719.56
2023-01-03T03:57:53.294Z,95712.88
2023-01-03T04:00:25.237Z,95714.72
2023-01-03T04:02:54.617Z,95734.97
2023-01-03T04:05:24.714Z,95729.72
2023-01-03T04:07:51.899Z,95730.19
2023-01-03T04:10:21.997Z,95744.38
2023-01-03T04:12:50.058Z,95730.63
2023-01-03T04:15:17.899Z,95747.97
2023-01-03T04:17:44.631Z,95756.81
2023-01-03T04:20:12.587Z,95768.00
2023-01-03T04:22:39.411Z,95753.09
2023-01-03T04:25:06.843Z,95735.25
2023-01-03T04:27:34.260Z,95745.56
2023-01-03T04:30:01.009Z,95747.91
2023-01-03T04:32:27.956Z,95761.72
2023-01-03T04:34:54.750Z,95761.28
2023-01-03T04:37:22.298Z,95744.78
2023-01-03T04:39:49.136Z,95765.91
2023-01-03T04:42:34.756Z,95764.09
2023-01-03T04:45:01.768Z,95753.66
2023-01-03T04:47:28.513Z,95773.72
2023-01-03T04:49:55.214Z,95749.69
2023-01-03T04:52:22.141Z,95772.09
2023-01-03T04:54:49.215Z,95781.06
2023-01-03T04:57:16.227Z,95761.09
2023-01-03T04:59:43.135Z,95788.09
2023-01-03T05:02:10.184Z,95787.59
2023-01-03T05:04:37.230Z,95804.63
2023-01-03T05:07:04.351Z,95787.69
2023-01-03T05:09:31.121Z,95789.19
2023-01-03T05:11:58.015Z,95794.63
2023-01-03T05:14:24.753Z,95803.38
2023-01-03T05:16:52.247Z,95765.22
2023-01-03T05:19:19.836Z,95770.50
2023-01-03T05:22:05.032Z,95763.69
2023-01-03T05:24:50.556Z,95773.25
2023-01-03T05:27:18.099Z,95793.22
2023-01-03T05:29:48.417Z,95807.53
2023-01-03T05:32:15.204Z,95799.00
2023-01-03T05:34:41.976Z,95792.94
2023-01-03T05:37:09.428Z,95815.50
2023-01-03T05:39:36.123Z,95825.41
2023-01-03T05:42:03.031Z,95822.44
2023-01-03T05:44:32.603Z,95833.91
2023-01-03T05:47:00.451Z,95840.97
2023-01-03T05:49:27.343Z,95852.94
2023-01-03T05:51:54.483Z,95834.97
2023-01-03T05:54:22.408Z,95870.19
2023-01-03T05:56:50.586Z,95856.00
2023-01-03T05:59:17.676Z,95848.25
2023-01-03T06:01:44.559Z,95850.56
2023-01-03T06:04:11.390Z,95872.16
2023-01-03T06:06:39.008Z,95880.81
2023-01-03T06:09:05.831Z,95849.22
2023-01-03T06:11:32.830Z,95837.78
2023-01-03T06:13:59.523Z,95793.66
2023-01-03T06:16:44.676Z,95801.91
2023-01-03T06:19:11.934Z,95807.13
2023-01-03T06:21:41.488Z,95759.16
2023-01-03T06:24:09.595Z,95795.97
2023-01-03T06:26:36.886Z,95814.19
2023-01-03T06:29:05.132Z,95827.94
2023-01-03T06:31:32.282Z,95837.00
2023-01-03T06:33:59.260Z,95861.22
2023-01-03T06:36:26.382Z,95852.16
2023-01-03T06:38:54.719Z,95856.53
2023-01-03T06:41:21.901Z,95849.72
2023-01-03T06:43:49.563Z,95848.16
2023-01-03T06:46:35.346Z,95853.16
2023-01-03T06:49:20.275Z,95843.41
2023-01-03T06:52:10.390Z,95815.06
2023-01-03T06:54:38.204Z,95834.66
2023-01-03T06:57:06.029Z,95833.00
2023-01-03T06:59:33.260Z,95831.50
2023-01-03T07:02:00.167Z,95830.38
2023-01-03T07:04:27.255Z,95802.06
2023-01-03T07:06:55.101Z,95827.56
2023-01-03T07:09:21.868Z,95838.63
2023-01-03T07:11:48.715Z,95861.34
2023-01-03T07:14:15.576Z,95877.38
2023-01-03T07:16:45.982Z,95897.78
2023-01-03T07:19:15.306Z,95899.91
2023-01-03T07:21:42.858Z,95901.94
2023-01-03T07:24:13.175Z,95915.06
2023-01-03T07:26:40.282Z,95882.03
2023-01-03T07:29:09.612Z,95881.78
2023-01-03T07:31:40.992Z,95851.13
2023-01-03T07:34:09.602Z,95876.72
2023-01-03T07:36:36.474Z,95864.06
2023-01-03T07:39:03.685Z,95870.19
2023-01-03T07:41:49.045Z,95880.56
2023-01-03T07:44:15.802Z,95860.31
2023-01-03T07:46:42.514Z,95856.56
2023-01-03T07:49:12.172Z,95884.28
2023-01-03T07:51:39.937Z,95854.59
2023-01-03T07:54:08.080Z,95885.53
2023-01-03T07:56:35.639Z,95915.16
2023-01-03T07:59:02.995Z,95925.44
2023-01-03T08:01:30.628Z,95946.84
2023-01-03T08:03:57.766Z,95922.00
2023-01-03T08:06:25.926Z,95946.66
2023-01-03T08:09:12.077Z,95939.75
2023-01-03T08:11:58.424Z,95915.66
2023-01-03T08:14:27.242Z,95928.81
2023-01-03T08:16:55.922Z,95943.28
2023-01-03T08:19:25.011Z,95932.97
2023-01-03T08:21:51.869Z,95916.03
2023-01-03T08:24:18.572Z,95929.91
2023-01-03T08:26:45.449Z,95887.25
2023-01-03T08:29:12.567Z,95908.34
2023-01-03T08:31:44.680Z,95936.25
2023-01-03T08:34:18.453Z,95946.72
2023-01-03T08:36:55.707Z,95943.91
2023-01-03T08:39:26.891Z,95941.16
2023-01-03T08:42:06.785Z,95943.56
2023-01-03T08:44:34.619Z,95957.59
2023-01-03T08:47:06.933Z,95957.31
2023-01-03T08:49:35.174Z,95952.75
2023-01-03T08:52:02.019Z,95940.91
2023-01-03T08:54:28.742Z,95949.25
2023-01-03T08:56:56.172Z,95956.94
2023-01-03T08:59:22.935Z,95942.28
2023-01-03T09:01:50.415Z,95953.44
2023-01-03T09:04:17.266Z,95959.78
2023-01-03T09:06:44.092Z,95963.13
2023-01-03T09:09:11.410Z,95963.75
2023-01-03T09:11:38.555Z,95929.69
2023-01-03T09:14:05.455Z,95949.06
2023-01-03T09:16:32.259Z,95938.28
2023-01-03T09:19:00.055Z,95970.97
2023-01-03T09:21:28.076Z,95968.28
2023-01-03T09:23:56.414Z,95963.19
2023-01-03T09:26:23.239Z,95967.91
2023-01-03T09:28:51.099Z,95981.50
2023-01-03T09:31:18.067Z,95999.91
2023-01-03T09:33:45.386Z,96004.56
2023-01-03T09:36:12.138Z,95994.69
2023-01-03T09:38:39.102Z,95996.47
2023-01-03T09:41:17.554Z,95987.53
2023-01-03T09:43:49.260Z,95991.06
2023-01-03T09:46:22.627Z,96004.19
2023-01-03T09:48:50.467Z,96002.66
2023-01-03T09:51:45.168Z,95983.38
2023-01-03T09:54:52.091Z,95996.72
2023-01-03T09:57:43.008Z,95987.91
2023-01-03T10:00:36.058Z,95986.00
2023-01-03T10:03:31.292Z,95985.13
2023-01-03T10:06:24.331Z,95975.06
2023-01-03T10:08:51.243Z,95983.56
2023-01-03T10:11:26.632Z,95977.78
2023-01-03T10:14:08.231Z,95970.59
2023-01-03T10:16:53.682Z,95972.44
2023-01-03T10:20:05.331Z,95967.34
2023-01-03T10:22:33.235Z,95974.88
2023-01-03T10:25:09.303Z,95972.63
2023-01-03T10:27:48.640Z,95979.53
2023-01-03T10:30:23.379Z,95975.13
2023-01-03T10:33:32.228Z,95960.19
2023-01-03T10:35:59.569Z,95943.81
2023-01-03T10:38:27.211Z,95945.66
2023-01-03T10:40:59.361Z,95921.53
2023-01-03T10:43:30.164Z,95959.38
2023-01-03T10:46:06.808Z,95942.53
2023-01-03T10:49:17.434Z,95961.03
2023-01-03T10:51:42.506Z,95932.06
2023-01-03T10:54:46.867Z,95950.38
2023-01-03T10:57:35.201Z,95960.81
2023-01-03T11:00:02.161Z,95949.69
2023-01-03T11:02:29.065Z,95945.84
2023-01-03T11:05:12.771Z,95936.38
2023-01-03T11:07:54.862Z,95924.44
2023-01-03T11:10:24.030Z,95942.69
2023-01-03T11:12:51.616Z,95950.38
2023-01-03T11:15:24.139Z,95931.75
2023-01-03T11:17:54.133Z,95924.69
2023-01-03T11:20:27.896Z,95906.16
2023-01-03T11:23:02.246Z,95920.66
2023-01-03T11:25:43.853Z,95912.28
2023-01-03T11:28:36.156Z,95923.41
2023-01-03T11:31:30.511Z,95888.38
2023-01-03T11:34:13.356Z,95917.63
2023-01-03T11:36:50.553Z,95918.47
2023-01-03T11:39:28.318Z,95903.22
2023-01-03T11:42:16.551Z,95923.47
2023-01-03T11:44:43.233Z,95910.09
2023-01-03T11:47:25.107Z,95911.75
2023-01-03T11:50:11.416Z,95879.94
2023-01-03T11:52:53.686Z,95853.75
2023-01-03T11:55:48.732Z,95859.00
2023-01-03T11:58:18.320Z,95872.41
2023-01-03T12:00:58.703Z,95845.19
2023-01-03T12:03:25.438Z,95875.50
2023-01-03T12:06:13.647Z,95894.13
2023-01-03T12:08:52.436Z,95891.41
2023-01-03T12:11:50.014Z,95876.78
2023-01-03T12:14:23.610Z,95893.56
2023-01-03T12:17:13.571Z,95918.75
2023-01-03T12:19:50.960Z,95915.19
2023-01-03T12:22:20.772Z,95921.00
2023-01-03T12:25:05.016Z,95899.97
2023-01-03T12:27:55.538Z,95897.91
2023-01-03T12:30:40.478Z,95900.44
2023-01-03T12:33:22.119Z,95912.75
2023-01-03T12:35:58.106Z,95910.22
2023-01-03T12:38:34.274Z,95899.84
2023-01-03T12:41:22.461Z,95890.06
2023-01-03T12:43:54.574Z,95906.53
2023-01-03T12:46:28.846Z,95880.88
2023-01-03T12:49:48.256Z,95859.47
2023-01-03T12:52:18.409Z,95873.41
2023-01-03T12:54:53.641Z,95893.38
2023-01-03T12:57:39.136Z,95874.94
2023-01-03T13:00:23.579Z,95896.38
2023-01-03T13:03:18.878Z,95856.03
2023-01-03T13:06:23.892Z,95898.38
2023-01-03T13:09:00.288Z,95874.53
2023-01-03T13:11:44.007Z,95899.84
2023-01-03T13:14:27.421Z,95851.00
2023-01-03T13:17:18.293Z,95877.66
2023-01-03T13:19:54.951Z,95866.66
2023-01-03T13:22:46.697Z,95870.19
2023-01-03T13:25:34.405Z,95877.13
2023-01-03T13:28:24.815Z,95867.25
2023-01-03T13:31:14.698Z,95885.25
2023-01-03T13:34:09.729Z,95887.28
2023-01-03T13:37:07.631Z,95886.19
2023-01-03T13:39:46.288Z,95910.75
2023-01-03T13:42:28.779Z,95903.03
2023-01-03T13:45:15.849Z,95889.69
2023-01-03T13:47:54.454Z,95901.34
2023-01-03T13:50:29.418Z,95912.28
2023-01-03T13:52:59.684Z,95909.59
2023-01-03T13:56:22.706Z,95910.47
2023-01-03T13:59:12.820Z,95915.47
2023-01-03T14:01:56.786Z,95922.88
2023-01-03T14:04:36.775Z,95925.91
2023-01-03T14:07:03.911Z,95926.59
2023-01-03T14:09:43.090Z,95929.06
2023-01-03T14:12:31.185Z,95880.22
2023-01-03T14:14:58.111Z,95922.66
2023-01-03T14:17:33.270Z,95899.34
2023-01-03T14:20:06.169Z,95923.72
2023-01-03T14:22:48.386Z,95903.28
2023-01-03T14:25:42.233Z,95916.59
2023-01-03T14:28:29.479Z,95892.28
2023-01-03T14:30:56.453Z,95888.44
2023-01-03T14:33:25.783Z,95908.38
2023-01-03T14:36:14.719Z,95920.00
2023-01-03T14:38:48.430Z,95927.53
2023-01-03T14:41:39.048Z,95933.53
2023-01-03T14:44:15.216Z,95937.56
2023-01-03T14:46:53.529Z,95930.84
2023-01-03T14:49:33.051Z,95928.72
2023-01-03T14:52:07.379Z,95938.34
2023-01-03T14:54:36.117Z,95946.16
2023-01-03T14:57:04.979Z,95940.56
2023-01-03T14:59:33.438Z,95949.31
2023-01-03T15:02:00.871Z,95951.69
2023-01-03T15:04:28.867Z,95960.47
2023-01-03T15:07:08.041Z,95939.84
2023-01-03T15:09:38.882Z,95923.78
2023-01-03T15:12:06.523Z,95934.88
2023-01-03T15:14:36.536Z,95942.84
2023-01-03T15:17:08.045Z,95950.31
2023-01-03T15:19:37.705Z,95954.25
2023-01-03T15:22:26.235Z,95949.00
2023-01-03T15:25:04.972Z,95969.72
2023-01-03T15:27:38.470Z,95974.66
2023-01-03T15:30:23.824Z,95968.97
2023-01-03T15:33:05.138Z,95970.69
2023-01-03T15:35:31.924Z,95990.16
2023-01-03T15:38:01.581Z,95986.41
2023-01-03T15:40:31.621Z,95991.41
2023-01-03T15:43:23.995Z,96003.59
2023-01-03T15:46:00.699Z,96003.50
2023-01-03T15:48:31.231Z,95989.84
2023-01-03T15:51:00.251Z,95988.59
2023-01-03T15:53:42.776Z,95964.31
2023-01-03T15:56:35.585Z,95965.44
2023-01-03T15:59:08.099Z,95982.78
2023-01-03T16:01:35.379Z,95988.09
2023-01-03T16:04:02.267Z,95989.66
2023-01-03T16:06:29.274Z,95979.94
2023-01-03T16:08:56.345Z,95994.97
2023-01-03T16:11:31.400Z,95993.88
2023-01-03T16:14:04.816Z,96002.09
2023-01-03T16:16:36.383Z,95997.22
2023-01-03T16:19:05.441Z,95994.09
2023-01-03T16:21:32.804Z,95991.66
2023-01-03T16:24:02.772Z,96000.47
2023-01-03T16:26:29.953Z,96012.38
2023-01-03T16:28:56.812Z,96011.28
2023-01-03T16:31:31.903Z,96011.75
2023-01-03T16:33:59.769Z,96016.56
2023-01-03T16:36:37.442Z,95987.19
2023-01-03T16:39:10.147Z,95939.06
2023-01-03T16:41:36.874Z,95942.44
2023-01-03T16:44:03.811Z,95950.34
2023-01-03T16:46:31.774Z,95978.72
2023-01-03T16:49:00.549Z,95988.81
2023-01-03T16:51:32.684Z,95987.66
2023-01-03T16:54:03.702Z,95988.34
2023-01-03T16:56:31.454Z,95981.16
2023-01-03T16:58:58.743Z,95994.53
2023-01-03T17:01:26.321Z,95993.44
2023-01-03T17:03:53.303Z,95979.25
2023-01-03T17:06:37.393Z,96003.91
2023-01-03T17:09:14.057Z,96001.88
2023-01-03T17:11:41.111Z,96010.59
2023-01-03T17:14:16.883Z,96005.38
2023-01-03T17:16:45.622Z,95997.41
2023-01-03T17:22:24.093Z,95984.06
2023-01-03T17:24:52.271Z,95984.47
2023-01-03T17:27:32.053Z,95965.38
2023-01-03T17:30:03.622Z,95974.59
2023-01-03T17:32:31.438Z,96001.53
2023-01-03T17:34:58.706Z,96000.09
2023-01-03T17:37:26.064Z,96018.53
2023-01-03T17:39:56.034Z,95980.63
2023-01-03T17:42:24.711Z,96005.38
2023-01-03T17:45:13.281Z,96018.56
2023-01-03T17:48:02.480Z,96028.06
2023-01-03T17:50:32.556Z,96037.19
2023-01-03T17:53:02.335Z,96042.31
2023-01-03T17:55:31.485Z,96031.28
2023-01-03T17:58:03.430Z,96006.47
2023-01-03T18:00:32.056Z,96004.84
2023-01-03T18:03:02.777Z,96019.47
2023-01-03T18:05:30.842Z,96031.75
2023-01-03T18:08:00.876Z,96033.31
2023-01-03T18:10:46.908Z,96033.53
2023-01-03T18:13:27.712Z,96029.78
2023-01-03T18:15:55.994Z,96013.66
2023-01-03T18:18:24.864Z,96010.69
2023-01-03T18:20:52.766Z,96008.03
2023-01-03T18:23:26.158Z,96016.00
2023-01-03T18:25:53.378Z,96028.78
2023-01-03T18:28:25.875Z,96028.97
2023-01-03T18:30:53.637Z,95998.97
2023-01-03T18:33:20.873Z,96019.28
2023-01-03T18:35:48.635Z,96023.16
2023-01-03T18:38:32.320Z,96034.63
2023-01-03T18:41:05.089Z,96023.19
2023-01-03T18:43:33.773Z,95999.31
2023-01-03T18:46:01.239Z,96013.31
2023-01-03T18:48:28.845Z,96012.53
2023-01-03T18:50:59.515Z,96031.41
2023-01-03T18:53:31.983Z,96033.78
2023-01-03T19:00:26.411Z,96031.25
2023-01-03T19:02:53.859Z,96046.56
2023-01-03T19:05:21.645Z,96032.84
2023-01-03T19:07:51.325Z,96008.16
2023-01-03T19:10:21.564Z,96020.00
2023-01-03T19:12:50.363Z,95990.78
2023-01-03T19:15:23.632Z,95982.34
2023-01-03T19:17:50.319Z,95999.19
2023-01-03T19:20:23.178Z,96030.63
2023-01-03T19:22:54.234Z,96027.69
2023-01-03T19:25:30.367Z,96042.00
2023-01-03T19:27:59.718Z,96015.13
2023-01-03T19:30:41.794Z,95961.78
2023-01-03T19:33:15.405Z,95997.94
2023-01-03T19:35:43.600Z,95973.56
2023-01-03T19:38:10.810Z,95960.31
2023-01-03T19:40:40.764Z,95994.69
2023-01-03T19:43:07.739Z,96003.53
2023-01-03T19:45:41.618Z,95978.44
2023-01-03T19:48:22.811Z,95965.09
2023-01-03T19:50:50.820Z,95961.03
2023-01-03T19:53:19.038Z,95991.47
2023-01-03T19:55:48.896Z,95990.06
2023-01-03T19:58:27.189Z,95984.06
2023-01-03T20:00:55.091Z,95951.38
2023-01-03T20:03:39.356Z,95981.97
2023-01-03T20:06:10.046Z,95989.13
2023-01-03T20:08:37.181Z,95993.56
2023-01-03T20:11:04.392Z,95993.69
2023-01-03T20:13:32.433Z,95992.81
2023-01-03T20:16:02.352Z,96000.88
2023-01-03T20:18:37.011Z,95996.75
2023-01-03T20:21:08.482Z,95997.09
2023-01-03T20:23:40.097Z,96011.56
2023-01-03T20:26:13.814Z,96026.44
2023-01-03T20:28:40.535Z,95988.88
2023-01-03T20:31:09.170Z,95990.75
2023-01-03T20:33:35.932Z,95996.63
2023-01-03T20:36:16.251Z,95972.66
2023-01-03T20:38:49.435Z,95961.94
2023-01-03T20:41:18.073Z,95928.31
2023-01-03T20:43:47.843Z,95910.34
2023-01-03T20:46:21.289Z,95953.78
2023-01-03T20:49:27.620Z,95928.44
2023-01-03T20:51:54.881Z,95933.66
2023-01-03T20:54:22.124Z,95955.97
2023-01-03T20:56:49.385Z,95955.97
2023-01-03T20:59:18.792Z,95974.34
2023-01-03T21:01:49.101Z,95978.50
2023-01-03T21:04:16.639Z,95985.06
2023-01-03T21:06:46.339Z,95968.44
2023-01-03T21:09:14.376Z,95947.69
2023-01-03T21:11:41.874Z,95944.53
2023-01-03T21:14:10.200Z,95944.94
2023-01-03T21:16:46.486Z,95954.25
2023-01-03T21:19:20.131Z,95950.63
2023-01-03T21:21:52.668Z,95935.66
2023-01-03T21:24:23.085Z,95972.56
2023-01-03T21:26:50.837Z,95989.28
2023-01-03T21:29:18.478Z,95972.84
2023-01-03T21:31:45.720Z,95944.66
2023-01-03T21:34:21.832Z,95973.94
2023-01-03T21:36:49.599Z,95973.28
2023-01-03T21:39:16.949Z,95991.22
2023-01-03T21:42:03.755Z,96007.09
2023-01-03T21:44:30.796Z,95996.28
2023-01-03T21:46:57.974Z,96003.63
2023-01-03T21:49:25.126Z,96014.28
2023-01-03T21:51:52.016Z,96017.28
2023-01-03T21:54:19.459Z,96001.00
2023-01-03T21:56:47.009Z,95975.25
2023-01-03T21:59:16.106Z,95953.34
2023-01-03T22:02:03.821Z,95977.34
2023-01-03T22:04:31.882Z,95992.94
2023-01-03T22:07:02.508Z,96010.75
2023-01-03T22:09:50.672Z,95988.53
2023-01-03T22:12:19.387Z,96008.22
2023-01-03T22:14:46.596Z,95996.25
2023-01-03T22:17:14.730Z,96015.56
2023-01-03T22:19:41.462Z,95984.75
2023-01-03T22:22:08.384Z,96006.81
2023-01-03T22:24:35.582Z,95977.75
2023-01-03T22:27:02.532Z,95963.19
2023-01-03T22:29:29.681Z,95926.28
2023-01-03T22:31:56.503Z,95966.88
2023-01-03T22:34:23.522Z,95963.00
2023-01-03T22:36:50.845Z,95968.69
2023-01-03T22:39:17.651Z,95957.31
2023-01-03T22:41:45.141Z,95958.41
2023-01-03T22:44:11.974Z,95976.78
2023-01-03T22:46:39.188Z,95986.63
2023-01-03T22:49:05.942Z,95981.00
2023-01-03T22:51:32.650Z,95974.81
2023-01-03T22:53:59.740Z,95963.19
2023-01-03T22:56:26.458Z,95989.78
2023-01-03T22:58:53.251Z,95942.25
2023-01-03T23:01:27.968Z,95936.19
2023-01-03T23:04:00.264Z,95925.59
2023-01-03T23:06:29.496Z,95926.22
2023-01-03T23:08:56.444Z,95918.78
2023-01-03T23:11:44.644Z,95962.91
2023-01-03T23:14:14.460Z,95911.28
2023-01-03T23:16:41.341Z,95907.41
2023-01-03T23:19:14.481Z,95901.69
2023-01-03T23:21:42.116Z,95913.16
2023-01-03T23:24:14.518Z,95921.47
2023-01-03T23:26:41.317Z,95939.78
2023-01-03T23:29:09.629Z,95943.41
2023-01-03T23:31:36.653Z,95968.31
2023-01-03T23:34:03.388Z,95958.28
2023-01-03T23:36:30.148Z,95964.66
2023-01-03T23:38:56.935Z,95943.22
2023-01-03T23:41:23.649Z,95979.25
2023-01-03T23:43:51.244Z,95960.28
2023-01-03T23:46:20.465Z,95974.03
2023-01-03T23:48:47.801Z,95976.84
2023-01-03T23:51:15.819Z,95985.63
2023-01-03T23:53:43.867Z,95987.69
2023-01-03T23:56:16.842Z,95977.81
2023-01-03T23:58:44.994Z,95975.22
